Terminal Aerodrome Forecast
Issued by NWS Sterling, VA

Home | Current Version | Previous Version | Text Only | Print | Product List | Glossary On
Versions: 1 2 3 4 5 6 7 8 9 10 11 12 13 14 15 16 17
000
FTUS41 KLWX 280837 AAA
TAFMRB
TAF AMD
KMRB 280837Z 2809/2906 05005KT 2SM -RA BR FEW060 OVC080
     FM281200 00000KT 3SM BR OVC050
     FM281500 23004KT P6SM -SHRA BKN060
     FM282200 29006KT 5SM -SHRA BKN040
     FM290000 32006KT P6SM BKN040
     FM290200 33008KT P6SM BKN030
     FM290500 34007KT P6SM BKN035=

USA.gov is the U.S. government's official web portal to all federal, state and local government web resources and services.